Canehill, Arkansas
Current Conditions -  °F | °C
As of 6:53 PM on Friday 28 Nov 2014 (Local Time) from KFYV Reporting Station
Clear Clear  
Wind Chill: 12°   Ceiling: Unl
Heat Index: 12°   Visibility: 10mi
Dew Point:   Wind: 16mph
Humidity: 57%   Direction: 190°S
Pressure: 29.95"   Gusts: 28mph
Location:  35.91°N, 94.4°W
Report Text: KFYV 290053Z 19014G24KT 10SM CLR 12/04 A2995 RMK AO2 SLP142 T01220039
Loading
Personal Weather Stations






























Interactive Weather Map New forecast layout! Learn more

10-Day Weather Forecast

Advertisements
Track Severe Weather on mobile